Time;durP1;ratioP1;P1;durP2;ratioP2;P2;SDS_P1;SDS_P2;PMS_P1;PMS_P2;Temp;Humidity;BMP_temperature;BMP_pressure;BME280_temperature;BME280_humidity;BME280_pressure;Samples;Min_cycle;Max_cycle;Signal;HPM_P1;HPM_P2
2021/05/09 00:02:24;;;;;;;3.53;2.70;;;;;;;-144.99;nan;52291.16;5009408;28;20673;-60
2021/05/09 00:04:53;;;;;;;3.13;2.17;;;;;;;-144.99;nan;52266.69;5010284;28;20207;-60
2021/05/09 00:07:22;;;;;;;3.30;2.23;;;;;;;-144.99;nan;52317.66;5006044;28;20226;-59
2021/05/09 00:09:52;;;;;;;3.47;2.17;;;;;;;-144.99;nan;52283.00;5007024;28;20235;-59
2021/05/09 00:12:18;;;;;;;4.87;2.57;;;;;;;-144.99;nan;52305.41;5010802;28;20527;-60
2021/05/09 00:14:44;;;;;;;3.63;2.37;;;;;;;-144.99;nan;52297.25;5010912;28;20364;-59
2021/05/09 00:17:13;;;;;;;5.63;2.47;;;;;;;-144.99;nan;52311.53;5010226;28;20598;-57
2021/05/09 00:19:42;;;;;;;3.23;2.50;;;;;;;-144.99;nan;52289.13;5008049;28;20799;-58
2021/05/09 00:22:08;;;;;;;5.47;2.63;;;;;;;-144.99;nan;52301.34;5010862;28;20246;-59
2021/05/09 00:24:34;;;;;;;4.57;2.93;;;;;;;-144.99;nan;52319.69;5013198;28;20211;-59
2021/05/09 00:27:04;;;;;;;6.40;2.57;;;;;;;-144.99;nan;52289.13;5015038;28;20214;-58
2021/05/09 00:29:33;;;;;;;5.13;2.77;;;;;;;-144.99;nan;52350.25;5010918;28;20235;-60
2021/05/09 00:31:59;;;;;;;3.97;2.77;;;;;;;-144.99;nan;52289.13;5010297;28;20217;-60
2021/05/09 00:34:25;;;;;;;2.87;2.30;;;;;;;-144.99;nan;52297.25;5010511;28;20215;-58
2021/05/09 00:36:51;;;;;;;4.07;2.97;;;;;;;-144.99;nan;52321.72;5010355;28;20207;-58
2021/05/09 00:39:17;;;;;;;5.83;2.90;;;;;;;-144.99;nan;52309.50;5006428;28;20295;-57
2021/05/09 00:41:46;;;;;;;5.43;2.93;;;;;;;-144.99;nan;52301.34;5009531;28;20265;-59
2021/05/09 00:44:15;;;;;;;3.33;2.33;;;;;;;-144.99;nan;52342.09;5009498;28;20215;-61
2021/05/09 00:46:42;;;;;;;4.23;2.87;;;;;;;-144.99;nan;52297.25;5009187;28;20217;-60
2021/05/09 00:49:11;;;;;;;4.10;2.07;;;;;;;-144.99;nan;52293.19;5008893;28;20242;-59
2021/05/09 00:51:37;;;;;;;4.17;2.30;;;;;;;-144.99;nan;52293.19;4999090;28;20701;-60
2021/05/09 00:54:09;;;;;;;5.03;2.50;;;;;;;-144.99;nan;52289.13;5009421;28;20255;-59
2021/05/09 00:56:35;;;;;;;4.20;2.60;;;;;;;-144.99;nan;52260.56;5004305;28;20210;-60
2021/05/09 00:59:06;;;;;;;2.50;1.77;;;;;;;-144.99;nan;52301.34;5008890;28;20317;-60
2021/05/09 01:01:36;;;;;;;4.83;2.67;;;;;;;-144.99;nan;52325.81;5004826;28;20218;-59
2021/05/09 01:04:05;;;;;;;3.97;2.53;;;;;;;-144.99;nan;52321.72;5005668;28;20229;-60
2021/05/09 01:06:36;;;;;;;4.13;2.20;;;;;;;-144.99;nan;52289.13;5008194;28;20211;-60
2021/05/09 01:09:05;;;;;;;6.73;2.70;;;;;;;-144.99;nan;52289.13;5010543;28;20227;-59
2021/05/09 01:11:31;;;;;;;13.47;3.13;;;;;;;-144.99;nan;52266.69;5006293;28;20694;-59
2021/05/09 01:13:59;;;;;;;2.67;2.20;;;;;;;-144.99;nan;52301.34;5001059;28;20760;-59
2021/05/09 01:16:26;;;;;;;4.23;2.60;;;;;;;-144.99;nan;52285.03;5008162;28;20218;-61
2021/05/09 01:18:52;;;;;;;6.37;3.20;;;;;;;-144.99;nan;52342.09;5009070;28;20242;-61
2021/05/09 01:21:22;;;;;;;5.10;2.27;;;;;;;-144.99;nan;52315.59;5001509;28;20203;-60
2021/05/09 01:23:51;;;;;;;4.13;3.03;;;;;;;-144.99;nan;52268.72;5004275;28;20206;-59
2021/05/09 01:26:19;;;;;;;3.07;2.60;;;;;;;-144.99;nan;52295.22;5007068;28;20279;-58
2021/05/09 01:28:46;;;;;;;3.93;2.20;;;;;;;-144.99;nan;52309.50;5008101;28;20273;-59
2021/05/09 01:31:12;;;;;;;4.83;2.63;;;;;;;-144.99;nan;52309.50;5004011;28;20231;-58
2021/05/09 01:33:38;;;;;;;4.53;2.50;;;;;;;-144.99;nan;52301.34;5009115;28;20225;-59
2021/05/09 01:36:07;;;;;;;6.17;3.07;;;;;;;-144.99;nan;52325.81;5009414;28;20329;-58
2021/05/09 01:38:34;;;;;;;3.63;2.10;;;;;;;-144.99;nan;52293.19;5004317;28;20285;-59
2021/05/09 01:41:00;;;;;;;4.97;2.10;;;;;;;-144.99;nan;52297.25;5006967;28;20214;-59
2021/05/09 01:43:35;;;;;;;2.90;2.03;;;;;;;-144.99;nan;52280.97;5008165;28;20695;-58
2021/05/09 01:46:01;;;;;;;6.27;2.40;;;;;;;-144.99;nan;52280.97;5006804;28;20267;-59
2021/05/09 01:48:27;;;;;;;2.73;2.00;;;;;;;-144.99;nan;52264.66;5008478;28;20226;-62
2021/05/09 01:50:53;;;;;;;4.13;2.70;;;;;;;-144.99;nan;52321.72;5008380;28;20226;-58
2021/05/09 01:53:20;;;;;;;4.30;3.13;;;;;;;-144.99;nan;52270.78;5007840;28;20214;-58
2021/05/09 01:55:47;;;;;;;5.07;2.63;;;;;;;-144.99;nan;52297.25;5009222;28;20211;-59
2021/05/09 01:58:14;;;;;;;3.17;1.90;;;;;;;-144.99;nan;52305.41;5008896;28;20264;-60
2021/05/09 02:00:40;;;;;;;8.77;2.80;;;;;;;-144.99;nan;52309.50;5008991;28;20213;-59
2021/05/09 02:03:09;;;;;;;3.93;2.07;;;;;;;-144.99;nan;52319.69;4999262;28;20211;-61
2021/05/09 02:05:38;;;;;;;2.40;2.00;;;;;;;-144.99;nan;52280.97;5002574;28;20210;-61
2021/05/09 02:08:04;;;;;;;4.67;2.77;;;;;;;-144.99;nan;52329.88;5008917;28;20213;-59
2021/05/09 02:10:31;;;;;;;3.40;2.37;;;;;;;-144.99;nan;52285.03;5000167;28;20218;-60
2021/05/09 02:12:58;;;;;;;5.23;1.77;;;;;;;-144.99;nan;52264.66;5005411;28;20211;-61
2021/05/09 02:15:26;;;;;;;7.47;2.10;;;;;;;-144.99;nan;52268.72;5009145;28;20211;-59
2021/05/09 02:17:52;;;;;;;3.63;1.63;;;;;;;-144.99;nan;52293.19;5012031;28;20207;-61
2021/05/09 02:20:21;;;;;;;28.17;6.53;;;;;;;-144.99;nan;52293.19;5007713;28;20231;-61
2021/05/09 02:22:48;;;;;;;2.57;2.03;;;;;;;-144.99;nan;52280.97;5011589;28;20211;-62
2021/05/09 02:25:17;;;;;;;3.80;2.30;;;;;;;-144.99;nan;52307.47;5008067;28;20272;-61
2021/05/09 02:27:43;;;;;;;3.63;2.20;;;;;;;-144.99;nan;52289.13;5012273;28;20229;-62
2021/05/09 02:30:10;;;;;;;3.50;2.03;;;;;;;-144.99;nan;52272.81;5011996;28;20239;-61
2021/05/09 02:32:39;;;;;;;3.00;2.33;;;;;;;-144.99;nan;52305.41;5011922;28;20253;-60
2021/05/09 02:35:08;;;;;;;3.57;2.10;;;;;;;-144.99;nan;52240.19;5005092;28;20202;-62
2021/05/09 02:37:35;;;;;;;7.77;4.37;;;;;;;-144.99;nan;52325.81;5011086;28;20206;-61
2021/05/09 02:40:01;;;;;;;11.40;6.33;;;;;;;-144.99;nan;52313.56;5010218;28;20230;-61
2021/05/09 02:42:27;;;;;;;14.57;9.23;;;;;;;-144.99;nan;52307.47;5011461;28;20257;-61
2021/05/09 02:44:53;;;;;;;13.77;10.63;;;;;;;-144.99;nan;52268.72;5011047;28;20207;-61
2021/05/09 02:47:29;;;;;;;12.20;6.50;;;;;;;-144.99;nan;52293.19;5011319;28;20203;-61
2021/05/09 02:49:56;;;;;;;5.70;4.10;;;;;;;-144.99;nan;52264.66;5009797;28;20280;-60
2021/05/09 02:52:22;;;;;;;9.47;2.93;;;;;;;-144.99;nan;52285.03;5005518;28;20293;-60
2021/05/09 02:54:48;;;;;;;7.60;4.20;;;;;;;-144.99;nan;52313.56;5011711;28;20203;-60
2021/05/09 02:57:14;;;;;;;4.93;2.73;;;;;;;-144.99;nan;52276.88;5011602;28;20222;-61
2021/05/09 02:59:40;;;;;;;4.23;2.10;;;;;;;-144.99;nan;52278.91;5011262;28;20272;-61
2021/05/09 03:02:06;;;;;;;6.23;2.73;;;;;;;-144.99;nan;52297.25;5010331;28;20744;-62
2021/05/09 03:04:36;;;;;;;4.43;2.40;;;;;;;-144.99;nan;52307.47;5011920;28;20214;-63
2021/05/09 03:07:02;;;;;;;3.97;2.50;;;;;;;-144.99;nan;52325.81;5013642;28;20665;-63
2021/05/09 03:09:28;;;;;;;3.30;2.33;;;;;;;-144.99;nan;52303.38;5012798;28;20239;-62
2021/05/09 03:11:57;;;;;;;4.00;2.80;;;;;;;-144.99;nan;52293.19;5006092;28;20248;-65
2021/05/09 03:14:23;;;;;;;3.20;1.80;;;;;;;-144.99;nan;52268.72;5007548;28;20207;-64
2021/05/09 03:16:52;;;;;;;5.90;2.10;;;;;;;-144.99;nan;52256.50;5010449;28;20213;-63
2021/05/09 03:19:21;;;;;;;4.00;2.60;;;;;;;-144.99;nan;52344.16;5010559;28;20242;-62
2021/05/09 03:21:47;;;;;;;6.60;2.50;;;;;;;-144.99;nan;52289.13;5008946;28;20218;-62
2021/05/09 03:24:19;;;;;;;2.80;2.20;;;;;;;-144.99;nan;52309.50;5008813;28;20306;-64
2021/05/09 03:26:48;;;;;;;5.53;2.43;;;;;;;-144.99;nan;52248.34;5010456;28;20210;-62
2021/05/09 03:29:14;;;;;;;5.03;3.13;;;;;;;-144.99;nan;52276.88;5010526;28;20238;-64
2021/05/09 03:31:43;;;;;;;6.77;2.60;;;;;;;-144.99;nan;52305.41;5010256;28;20230;-63
2021/05/09 03:34:13;;;;;;;2.80;2.30;;;;;;;-144.99;nan;52283.00;5004794;28;20203;-62
2021/05/09 03:36:42;;;;;;;5.07;2.57;;;;;;;-144.99;nan;52280.97;5003515;28;20207;-61
2021/05/09 03:39:09;;;;;;;5.40;1.70;;;;;;;-144.99;nan;52285.03;5007791;28;20269;-61
2021/05/09 03:41:38;;;;;;;4.37;1.90;;;;;;;-144.99;nan;52264.66;5010580;28;20214;-61
2021/05/09 03:44:05;;;;;;;3.13;1.97;;;;;;;-144.99;nan;52313.56;5003674;28;20229;-61
2021/05/09 03:46:36;;;;;;;8.23;2.63;;;;;;;-144.99;nan;52260.56;5002228;28;20218;-61
2021/05/09 03:49:03;;;;;;;2.37;1.73;;;;;;;-144.99;nan;52293.19;5010571;28;20234;-62
2021/05/09 03:51:32;;;;;;;4.00;2.23;;;;;;;-144.99;nan;52293.19;5008457;28;20230;-61
2021/05/09 03:53:58;;;;;;;2.60;2.07;;;;;;;-144.99;nan;52280.97;5010772;28;20206;-62
2021/05/09 03:56:27;;;;;;;2.70;1.90;;;;;;;-144.99;nan;52280.97;5010488;28;20716;-62
2021/05/09 03:58:53;;;;;;;10.77;2.40;;;;;;;-144.99;nan;52256.50;5008353;28;20243;-62
2021/05/09 04:01:22;;;;;;;2.90;1.90;;;;;;;-144.99;nan;52272.81;5009582;28;20618;-60
2021/05/09 04:03:48;;;;;;;3.80;2.93;;;;;;;-144.99;nan;52272.81;5011107;28;20633;-60
2021/05/09 04:06:17;;;;;;;2.43;1.80;;;;;;;-144.99;nan;52280.97;5011519;28;20256;-63
2021/05/09 04:08:43;;;;;;;7.23;2.43;;;;;;;-144.99;nan;52321.72;5010139;28;20244;-63
2021/05/09 04:11:12;;;;;;;7.90;1.90;;;;;;;-144.99;nan;52268.72;5008413;28;20727;-63
2021/05/09 04:13:49;;;;;;;4.60;1.73;;;;;;;-144.99;nan;52305.41;5002862;28;20303;-61
2021/05/09 04:16:18;;;;;;;1.50;1.20;;;;;;;-144.99;nan;52256.50;5009719;28;20688;-62
2021/05/09 04:18:44;;;;;;;3.53;2.37;;;;;;;-144.99;nan;52280.97;5009716;28;20807;-62
2021/05/09 04:21:10;;;;;;;6.50;2.27;;;;;;;-144.99;nan;52285.03;5009697;28;20215;-63
2021/05/09 04:23:37;;;;;;;4.90;2.07;;;;;;;-144.99;nan;52309.50;5003291;28;20616;-63
2021/05/09 04:26:06;;;;;;;3.77;1.80;;;;;;;-144.99;nan;52293.19;5009525;28;20229;-62
2021/05/09 04:28:35;;;;;;;6.47;1.90;;;;;;;-144.99;nan;52266.69;5001768;28;20705;-62
2021/05/09 04:31:02;;;;;;;3.90;2.00;;;;;;;-144.99;nan;52264.66;5009185;28;20564;-62
2021/05/09 04:33:28;;;;;;;3.43;1.60;;;;;;;-144.99;nan;52276.88;5008994;28;20261;-63
2021/05/09 04:35:57;;;;;;;3.90;2.07;;;;;;;-144.99;nan;52268.72;5009570;28;20277;-63
2021/05/09 04:38:23;;;;;;;5.33;2.37;;;;;;;-144.99;nan;52264.66;5007763;28;20469;-62
2021/05/09 04:40:50;;;;;;;3.20;1.93;;;;;;;-144.99;nan;52252.44;5007511;28;20203;-63
2021/05/09 04:43:21;;;;;;;3.67;2.00;;;;;;;-144.99;nan;52278.91;5008059;28;20242;-64
2021/05/09 04:45:52;;;;;;;3.87;1.93;;;;;;;-144.99;nan;52285.03;5008215;28;20206;-64
2021/05/09 04:48:19;;;;;;;2.23;1.57;;;;;;;-144.99;nan;52268.72;5009635;28;20227;-61
2021/05/09 04:50:49;;;;;;;3.73;2.20;;;;;;;-144.99;nan;52280.97;5008911;28;20230;-61
2021/05/09 04:53:26;;;;;;;2.80;1.73;;;;;;;-144.99;nan;52283.00;5008321;28;20233;-61
2021/05/09 04:55:55;;;;;;;3.10;1.93;;;;;;;-144.99;nan;52246.31;5009198;28;20213;-62
2021/05/09 04:58:21;;;;;;;4.17;1.70;;;;;;;-144.99;nan;52240.19;5008675;28;20227;-61
2021/05/09 05:00:51;;;;;;;5.03;1.50;;;;;;;-144.99;nan;52297.25;5008696;28;20249;-61
2021/05/09 05:03:17;;;;;;;5.30;1.83;;;;;;;-144.99;nan;52250.38;5007846;28;20207;-61
2021/05/09 05:05:44;;;;;;;4.17;2.00;;;;;;;-144.99;nan;52299.31;5010412;28;20222;-60
2021/05/09 05:08:13;;;;;;;4.50;2.00;;;;;;;-144.99;nan;52278.91;5008688;28;20218;-60
2021/05/09 05:10:44;;;;;;;4.73;1.57;;;;;;;-144.99;nan;52260.56;5008915;28;20242;-60
2021/05/09 05:13:17;;;;;;;5.03;1.90;;;;;;;-144.99;nan;52276.88;5007015;28;20219;-61
2021/05/09 05:15:50;;;;;;;4.13;2.53;;;;;;;-144.99;nan;52272.81;5002804;28;20222;-65
2021/05/09 05:18:17;;;;;;;2.60;1.50;;;;;;;-144.99;nan;52264.66;5007927;28;20211;-62
2021/05/09 05:20:47;;;;;;;5.57;1.50;;;;;;;-144.99;nan;52285.03;5008606;28;20609;-63
2021/05/09 05:23:13;;;;;;;4.00;1.40;;;;;;;-144.99;nan;52250.38;5008515;28;20301;-63
2021/05/09 05:25:39;;;;;;;3.40;1.97;;;;;;;-144.99;nan;52268.72;5004269;28;20206;-62
2021/05/09 05:28:18;;;;;;;7.33;1.90;;;;;;;-144.99;nan;52323.75;5008884;28;20237;-62
2021/05/09 05:30:45;;;;;;;4.60;1.97;;;;;;;-144.99;nan;52256.50;5008891;28;20222;-61
2021/05/09 05:33:24;;;;;;;2.87;1.80;;;;;;;-144.99;nan;52289.13;5009809;28;20218;-63
2021/05/09 05:35:51;;;;;;;3.87;2.03;;;;;;;-144.99;nan;52256.50;5000967;28;20746;-63
2021/05/09 05:38:20;;;;;;;2.63;1.53;;;;;;;-144.99;nan;52248.34;5008111;28;20214;-59
2021/05/09 05:40:50;;;;;;;3.23;2.03;;;;;;;-144.99;nan;52254.47;5007769;28;20210;-60
2021/05/09 05:43:19;;;;;;;4.03;1.70;;;;;;;-144.99;nan;52260.56;5012827;28;20680;-62
2021/05/09 05:45:45;;;;;;;2.30;1.53;;;;;;;-144.99;nan;52227.97;5003725;28;20207;-61
2021/05/09 05:48:11;;;;;;;1.53;1.27;;;;;;;-144.99;nan;52248.34;5009022;28;20206;-63
2021/05/09 05:50:39;;;;;;;4.20;2.50;;;;;;;-144.99;nan;52236.13;5009526;28;20254;-63
2021/05/09 05:53:05;;;;;;;3.53;1.80;;;;;;;-144.99;nan;52219.81;5013347;28;20211;-62
2021/05/09 05:55:31;;;;;;;2.87;1.50;;;;;;;-144.99;nan;52227.97;5008103;28;20225;-62
2021/05/09 05:58:00;;;;;;;3.30;1.67;;;;;;;-144.99;nan;52203.50;5013018;28;20202;-61
2021/05/09 06:00:29;;;;;;;5.57;1.50;;;;;;;-144.99;nan;52236.13;5012188;28;20236;-60
2021/05/09 06:02:58;;;;;;;2.67;1.93;;;;;;;-144.99;nan;52260.56;5012833;28;20207;-64
2021/05/09 06:05:24;;;;;;;4.40;1.60;;;;;;;-144.99;nan;52260.56;5011986;28;20621;-64
2021/05/09 06:07:50;;;;;;;3.13;1.67;;;;;;;-144.99;nan;52232.03;5011584;28;20781;-63
2021/05/09 06:10:17;;;;;;;6.23;2.00;;;;;;;-144.99;nan;52217.78;5009615;28;20266;-62
2021/05/09 06:12:43;;;;;;;2.53;1.30;;;;;;;-144.99;nan;52244.28;5012925;28;20216;-64
2021/05/09 06:15:10;;;;;;;4.60;2.20;;;;;;;-144.99;nan;52223.88;5012669;28;20213;-65
2021/05/09 06:17:37;;;;;;;4.27;1.47;;;;;;;-144.99;nan;52225.94;5012282;28;20203;-63
2021/05/09 06:20:04;;;;;;;3.30;1.40;;;;;;;-144.99;nan;52252.44;5010999;28;20237;-64
2021/05/09 06:22:33;;;;;;;3.60;1.60;;;;;;;-144.99;nan;52207.59;5012038;28;20212;-64
2021/05/09 06:25:04;;;;;;;4.30;1.50;;;;;;;-144.99;nan;52227.97;5012285;28;20283;-65
2021/05/09 06:27:34;;;;;;;3.60;1.97;;;;;;;-144.99;nan;52252.44;5008618;28;20218;-65
2021/05/09 06:30:07;;;;;;;2.27;1.60;;;;;;;-144.99;nan;52227.97;5011987;28;20231;-64
2021/05/09 06:32:35;;;;;;;2.27;1.47;;;;;;;-144.99;nan;52219.81;5010764;28;20208;-64
2021/05/09 06:35:05;;;;;;;4.00;1.87;;;;;;;-144.99;nan;52219.81;5012062;28;20217;-65
2021/05/09 06:37:33;;;;;;;5.87;3.50;;;;;;;-144.99;nan;52234.09;5007826;28;20211;-64
2021/05/09 06:39:59;;;;;;;2.97;1.90;;;;;;;-144.99;nan;52238.16;5010141;28;20644;-63
2021/05/09 06:42:25;;;;;;;4.57;1.73;;;;;;;-144.99;nan;52240.19;5001651;28;20586;-64
2021/05/09 06:44:56;;;;;;;6.07;1.53;;;;;;;-144.99;nan;52207.59;5012127;28;20675;-65
2021/05/09 06:47:22;;;;;;;3.40;2.27;;;;;;;-144.99;nan;52181.09;5010477;28;20265;-69
2021/05/09 06:49:51;;;;;;;4.37;2.23;;;;;;;-144.99;nan;52187.19;5003552;28;20295;-62
2021/05/09 06:52:20;;;;;;;4.67;1.93;;;;;;;-144.99;nan;52227.97;5008015;28;20237;-60
2021/05/09 06:54:46;;;;;;;2.60;1.87;;;;;;;-144.99;nan;52203.50;5012283;28;20234;-60
2021/05/09 06:57:15;;;;;;;3.80;1.97;;;;;;;-144.99;nan;52242.22;5011119;28;20233;-60
2021/05/09 06:59:41;;;;;;;1.47;1.37;;;;;;;-144.99;nan;52215.75;5007651;28;20477;-64
2021/05/09 07:02:07;;;;;;;10.17;3.37;;;;;;;-144.99;nan;52221.84;5011759;28;20416;-63
2021/05/09 07:04:37;;;;;;;5.87;1.87;;;;;;;-144.99;nan;52272.81;5012441;28;20210;-62
2021/05/09 07:07:03;;;;;;;2.73;1.80;;;;;;;-144.99;nan;52244.28;5013375;28;20301;-60
2021/05/09 07:09:35;;;;;;;10.67;2.70;;;;;;;-144.99;nan;52223.88;5010320;28;20227;-61
2021/05/09 07:12:00;;;;;;;2.93;1.57;;;;;;;-144.99;nan;52252.44;5011431;28;20284;-62
2021/05/09 07:14:29;;;;;;;2.53;2.30;;;;;;;-144.99;nan;52223.88;5012079;28;20211;-61
2021/05/09 07:16:58;;;;;;;3.83;1.07;;;;;;;-144.99;nan;52187.19;5007020;28;20314;-61
2021/05/09 07:19:29;;;;;;;2.37;1.40;;;;;;;-144.99;nan;52174.97;5010642;28;20581;-61
2021/05/09 07:21:57;;;;;;;3.50;1.97;;;;;;;-144.99;nan;52248.34;5007323;28;20211;-63
2021/05/09 07:24:23;;;;;;;4.70;1.87;;;;;;;-144.99;nan;52223.88;5011526;28;20219;-62
2021/05/09 07:26:49;;;;;;;2.00;1.30;;;;;;;-144.99;nan;52199.44;5013359;28;20214;-63
2021/05/09 07:29:21;;;;;;;3.10;1.70;;;;;;;-144.99;nan;52187.19;5011448;28;20239;-63
2021/05/09 07:31:47;;;;;;;3.17;2.90;;;;;;;-144.99;nan;52195.34;5008858;28;20325;-62
2021/05/09 07:34:14;;;;;;;1.43;1.13;;;;;;;-144.99;nan;52227.97;5015544;28;20215;-62
2021/05/09 07:36:47;;;;;;;2.23;1.60;;;;;;;-144.99;nan;52207.59;5012352;28;20219;-63
2021/05/09 07:39:13;;;;;;;7.40;1.90;;;;;;;-144.99;nan;52211.66;5008732;28;20239;-61
2021/05/09 07:41:42;;;;;;;2.87;2.10;;;;;;;-144.99;nan;52213.69;5011424;28;20612;-61
2021/05/09 07:44:08;;;;;;;3.37;1.80;;;;;;;-144.99;nan;52193.31;5016757;28;20577;-62
2021/05/09 07:46:40;;;;;;;2.50;1.77;;;;;;;-144.99;nan;52199.44;5011299;28;20234;-61
2021/05/09 07:49:06;;;;;;;3.00;1.77;;;;;;;-144.99;nan;52146.44;5010954;28;20230;-62
2021/05/09 07:51:36;;;;;;;5.57;2.67;;;;;;;-144.99;nan;52203.50;5001356;28;20720;-62
2021/05/09 07:54:15;;;;;;;3.40;2.03;;;;;;;-144.99;nan;52191.28;5009574;28;20210;-64
2021/05/09 07:56:41;;;;;;;7.43;2.03;;;;;;;-144.99;nan;52187.19;5004761;28;20206;-62
2021/05/09 07:59:09;;;;;;;3.60;1.70;;;;;;;-144.99;nan;52195.34;5008017;28;20226;-60
2021/05/09 08:01:35;;;;;;;3.23;1.87;;;;;;;-144.99;nan;52174.97;5009889;28;20208;-62
2021/05/09 08:04:04;;;;;;;3.47;1.53;;;;;;;-144.99;nan;52199.44;5012156;28;20264;-61
2021/05/09 08:06:33;;;;;;;3.30;1.77;;;;;;;-144.99;nan;52170.91;5009993;28;20682;-62
2021/05/09 08:09:01;;;;;;;5.93;1.90;;;;;;;-144.99;nan;52223.88;5011811;28;20711;-62
2021/05/09 08:11:28;;;;;;;4.13;1.13;;;;;;;-144.99;nan;52170.91;5008132;28;20617;-61
2021/05/09 08:13:57;;;;;;;2.33;1.40;;;;;;;-144.99;nan;52150.53;5009803;28;20218;-61
2021/05/09 08:16:23;;;;;;;3.10;1.77;;;;;;;-144.99;nan;52179.06;5010063;28;20217;-61
2021/05/09 08:18:52;;;;;;;5.07;1.70;;;;;;;-144.99;nan;52130.13;5010556;28;20235;-61
2021/05/09 08:21:18;;;;;;;2.90;1.93;;;;;;;-144.99;nan;52177.00;5008903;28;20200;-61
2021/05/09 08:23:47;;;;;;;2.57;1.53;;;;;;;-144.99;nan;52170.91;5010976;28;20236;-60
2021/05/09 08:26:16;;;;;;;3.00;1.60;;;;;;;-144.99;nan;52189.25;5010081;28;20208;-60
2021/05/09 08:28:43;;;;;;;3.43;2.03;;;;;;;-144.99;nan;52174.97;5009979;28;20606;-60
2021/05/09 08:31:10;;;;;;;2.03;1.70;;;;;;;-144.99;nan;52197.41;5006608;28;20229;-64
2021/05/09 08:33:36;;;;;;;3.17;2.00;;;;;;;-144.99;nan;52136.25;5010592;28;20219;-62
2021/05/09 08:36:03;;;;;;;3.97;1.73;;;;;;;-144.99;nan;52174.97;5010428;28;20664;-63
2021/05/09 08:38:29;;;;;;;5.20;1.60;;;;;;;-144.99;nan;52162.75;5009167;28;20290;-63
2021/05/09 08:40:56;;;;;;;6.07;2.50;;;;;;;-144.99;nan;52197.41;5005491;28;20242;-63
2021/05/09 08:43:22;;;;;;;8.40;1.87;;;;;;;-144.99;nan;52170.91;5004474;28;20678;-64
2021/05/09 08:45:51;;;;;;;9.30;3.83;;;;;;;-144.99;nan;52158.66;5010531;28;20217;-67
2021/05/09 08:48:24;;;;;;;6.03;1.53;;;;;;;-144.99;nan;52174.97;5010569;28;20693;-63
2021/05/09 08:50:54;;;;;;;2.93;1.67;;;;;;;-144.99;nan;52126.06;5005912;28;20223;-63
2021/05/09 08:53:20;;;;;;;5.50;2.00;;;;;;;-144.99;nan;52172.94;5010119;28;20243;-60
2021/05/09 08:55:47;;;;;;;5.20;1.67;;;;;;;-144.99;nan;52185.16;5009299;28;20655;-62
2021/05/09 08:58:16;;;;;;;4.17;1.73;;;;;;;-144.99;nan;52174.97;5009706;28;20596;-63
2021/05/09 09:00:42;;;;;;;5.33;2.07;;;;;;;-144.99;nan;52170.91;5009558;28;20217;-62
2021/05/09 09:03:12;;;;;;;3.27;1.83;;;;;;;-144.99;nan;52191.28;5008863;28;20213;-63
2021/05/09 09:05:40;;;;;;;3.47;2.10;;;;;;;-144.99;nan;52166.81;5011877;28;20206;-63
2021/05/09 09:08:10;;;;;;;2.67;1.80;;;;;;;-144.99;nan;52160.72;5010368;28;20581;-62
2021/05/09 09:10:46;;;;;;;5.47;2.30;;;;;;;-144.99;nan;52101.59;5002264;28;20575;-65
2021/05/09 09:13:21;;;;;;;3.27;1.50;;;;;;;-144.99;nan;52152.56;5008558;28;20254;-66
2021/05/09 09:16:01;;;;;;;6.63;1.83;;;;;;;-144.99;nan;52158.66;5009840;28;20466;-64
2021/05/09 09:18:37;;;;;;;3.27;1.70;;;;;;;-144.99;nan;52162.75;5009681;28;20260;-64
2021/05/09 09:21:31;;;;;;;3.07;1.67;;;;;;;-144.99;nan;52179.06;5009815;28;20264;-65
2021/05/09 09:24:04;;;;;;;3.33;1.87;;;;;;;-144.99;nan;52150.53;5006289;28;20702;-64
2021/05/09 09:26:39;;;;;;;8.40;1.87;;;;;;;-144.99;nan;52150.53;5007960;28;20298;-64
2021/05/09 09:29:22;;;;;;;5.67;1.70;;;;;;;-144.99;nan;52215.75;5009415;28;20268;-64
2021/05/09 09:31:53;;;;;;;3.93;1.47;;;;;;;-144.99;nan;52134.22;5008926;28;20235;-64
2021/05/09 09:34:21;;;;;;;5.57;2.03;;;;;;;-144.99;nan;52154.59;5009812;28;20223;-62
2021/05/09 09:37:01;;;;;;;3.73;1.40;;;;;;;-144.99;nan;52166.81;5010787;28;20205;-64
2021/05/09 09:39:44;;;;;;;3.50;1.43;;;;;;;-144.99;nan;52154.59;5004070;28;20229;-65
2021/05/09 09:42:13;;;;;;;2.93;1.70;;;;;;;-144.99;nan;52166.81;5009064;28;20705;-65
2021/05/09 09:44:39;;;;;;;4.83;1.73;;;;;;;-144.99;nan;52187.19;5010109;28;20209;-65
2021/05/09 09:47:05;;;;;;;4.87;1.83;;;;;;;-144.99;nan;52138.28;5007932;28;20207;-65
2021/05/09 09:49:40;;;;;;;5.17;1.63;;;;;;;-144.99;nan;52148.47;5009460;28;20240;-63
2021/05/09 09:52:10;;;;;;;2.87;2.27;;;;;;;-144.99;nan;52160.72;5005055;28;20221;-65
2021/05/09 09:54:40;;;;;;;4.93;2.30;;;;;;;-144.99;nan;52174.97;5009680;28;20209;-62
2021/05/09 09:57:11;;;;;;;4.43;1.87;;;;;;;-144.99;nan;52162.75;5005276;28;20212;-62
2021/05/09 09:59:37;;;;;;;2.90;1.70;;;;;;;-144.99;nan;52130.13;5001437;28;20755;-63
2021/05/09 10:02:05;;;;;;;2.83;1.60;;;;;;;-144.99;nan;52117.91;5011443;28;20200;-65
2021/05/09 10:04:34;;;;;;;2.87;1.20;;;;;;;-144.99;nan;52115.88;5000300;28;20228;-63
2021/05/09 10:07:13;;;;;;;3.27;1.80;;;;;;;-144.99;nan;52089.38;5009046;28;20269;-65
2021/05/09 10:09:42;;;;;;;8.63;1.93;;;;;;;-144.99;nan;52126.06;5003054;28;20604;-65
2021/05/09 10:12:09;;;;;;;3.63;1.80;;;;;;;-144.99;nan;52130.13;5009279;28;20229;-64
2021/05/09 10:14:40;;;;;;;2.93;1.80;;;;;;;-144.99;nan;52146.44;5009816;28;20221;-64
2021/05/09 10:17:06;;;;;;;5.23;1.87;;;;;;;-144.99;nan;52113.84;5009414;28;20648;-62
2021/05/09 10:19:33;;;;;;;5.67;1.90;;;;;;;-144.99;nan;52154.59;4999526;28;20284;-62
2021/05/09 10:22:26;;;;;;;3.53;2.07;;;;;;;-144.99;nan;52115.88;5008081;28;20221;-62
2021/05/09 10:24:55;;;;;;;3.00;2.07;;;;;;;-144.99;nan;52150.53;5004453;28;20210;-63
2021/05/09 10:27:37;;;;;;;4.67;2.50;;;;;;;-144.99;nan;52109.75;5008561;28;20215;-62
2021/05/09 10:30:07;;;;;;;1.60;1.27;;;;;;;-144.99;nan;52060.84;5008093;28;20327;-62
2021/05/09 10:33:03;;;;;;;3.43;2.33;;;;;;;-144.99;nan;52064.91;5009219;28;20710;-65
2021/05/09 10:35:38;;;;;;;5.47;3.00;;;;;;;-144.99;nan;52140.31;5010991;28;20221;-64
2021/05/09 10:38:09;;;;;;;3.47;1.57;;;;;;;-144.99;nan;52109.75;5010060;28;20300;-63
2021/05/09 10:40:38;;;;;;;3.73;1.60;;;;;;;-144.99;nan;52117.91;5004573;28;20248;-63
2021/05/09 10:43:37;;;;;;;5.57;1.53;;;;;;;-144.99;nan;52036.38;5010551;28;20531;-63
2021/05/09 10:46:13;;;;;;;2.63;1.37;;;;;;;-144.99;nan;52069.00;5003000;28;20210;-62
2021/05/09 10:48:42;;;;;;;4.73;1.47;;;;;;;-144.99;nan;52038.44;5007507;28;20325;-63
2021/05/09 10:51:29;;;;;;;3.53;1.67;;;;;;;-144.99;nan;52071.03;5004806;28;20230;-62
2021/05/09 10:54:28;;;;;;;3.37;1.60;;;;;;;-144.99;nan;52060.84;5010917;28;20213;-63
2021/05/09 10:56:57;;;;;;;2.07;1.27;;;;;;;-144.99;nan;52056.78;4999640;28;20683;-64
2021/05/09 10:59:56;;;;;;;2.33;1.30;;;;;;;-144.99;nan;52026.19;4317875;28;10000747;-63
2021/05/09 11:02:32;;;;;;;4.57;1.03;;;;;;;-144.99;nan;52048.63;5001515;28;20234;-65
2021/05/09 11:04:58;;;;;;;3.77;1.40;;;;;;;-144.99;nan;52028.22;5010206;28;20232;-64
2021/05/09 11:07:44;;;;;;;2.93;1.73;;;;;;;-144.99;nan;52007.84;5017383;28;20215;-65
2021/05/09 11:10:38;;;;;;;3.47;1.70;;;;;;;-144.99;nan;52036.38;5009510;28;20245;-63
2021/05/09 11:13:06;;;;;;;5.07;1.67;;;;;;;-144.99;nan;52064.91;5009598;28;20215;-61
2021/05/09 11:15:36;;;;;;;5.13;2.47;;;;;;;-144.99;nan;51971.16;5012519;28;20206;-63
2021/05/09 11:18:12;;;;;;;5.97;3.17;;;;;;;-144.99;nan;52028.22;5006370;28;20211;-62
2021/05/09 11:20:53;;;;;;;5.97;1.83;;;;;;;-144.99;nan;52044.53;5023500;28;20207;-66
2021/05/09 11:23:19;;;;;;;4.40;1.83;;;;;;;-144.99;nan;52073.06;5021196;28;20235;-66
2021/05/09 11:25:45;;;;;;;3.40;0.93;;;;;;;-144.99;nan;52024.16;5011453;28;20309;-65
2021/05/09 11:28:26;;;;;;;3.07;1.10;;;;;;;-144.99;nan;52024.16;5013130;28;20267;-64
2021/05/09 11:30:52;;;;;;;2.90;1.03;;;;;;;-144.99;nan;52038.44;5010199;28;20219;-65
2021/05/09 11:33:21;;;;;;;2.57;1.23;;;;;;;-144.99;nan;52032.31;5012010;28;20213;-65
2021/05/09 11:35:50;;;;;;;3.20;1.37;;;;;;;-144.99;nan;52044.53;5001949;28;20225;-65
2021/05/09 11:38:16;;;;;;;2.80;1.37;;;;;;;-144.99;nan;52052.69;5009659;28;20230;-63
2021/05/09 11:40:42;;;;;;;4.93;1.43;;;;;;;-144.99;nan;51999.69;5008304;28;20213;-63
2021/05/09 11:43:12;;;;;;;1.57;1.07;;;;;;;-144.99;nan;52016.00;5009659;28;20663;-62
2021/05/09 11:45:39;;;;;;;2.57;1.37;;;;;;;-144.99;nan;52009.91;5010628;28;20213;-64